P. Meadows Coastal Station Automatic Weather Reporting System

CWMM · British Columbia, Kanada

6. Oktober 2022

Uhrzeit Code Wetter Temp. Sichtweite Wolkendecke Wind METAR/SPECI
14:00
V
19 °C 15 mi 24.000 ft 290° 290° 10 kt METAR CYVR 062100Z 29010KT 15SM FEW220 BKN240 19/16 A3014 RMK CS2CI4 SLP209 DENSITY ALT 300FT
13:00
V
19 °C 15 mi 24.000 ft 300° 300° 8 kt METAR CYVR 062000Z 30008KT 15SM FEW220 BKN240 19/16 A3016 RMK CS2CI3 SLP217 DENSITY ALT 200FT
12:00
V
18 °C 15 mi 24.000 ft 290° 290° 8 kt METAR CYVR 061900Z 29008KT 15SM FEW210 BKN240 18/15 A3017 RMK CC2CI3 SLP220 DENSITY ALT 100FT
11:00
V
17 °C 15 mi - Var 000° 0 kt METAR CYVR 061800Z 00000KT 15SM FEW160 FEW240 17/15 A3019 RMK AC1CI1 AC TR SLP224
10:00
V
15 °C 10 mi - Var Var 2 kt METAR CYVR 061700Z VRB02KT 10SM R26L/2600VP6000FT/N FEW210 FEW240 15/15 A3019 RMK CC1CI2 CC TR SLP226
09:00
V
13 °C 10 mi - Var Var 2 kt METAR CYVR 061600Z VRB02KT 10SM FEW004 FEW210 SCT240 13/13 A3019 RMK SF1CC1CI2 SF TR VIS E 5 SLP225
08:00
V
11 °C 7 mi 23.000 ft 140° 140° 3 kt METAR CYVR 061500Z 14003KT 7SM R26R/5500VP6000FT/D PRFG FEW002 FEW130 SCT210 BKN230 11/11 A3018 RMK SF1AC1CC2CI3 SF TR VIS NW 3 VIS NE 3 SLP223
07:00
V
11 °C 10 mi - 090° 090° 3 kt METAR CYVR 061400Z 09003KT 10SM R26R/1100V2600FT/N BCFG FEW003 11/11 A3018 RMK SF1 SF TR VIS NW 3 VIS NE 6 SLP221
06:00
V
11 °C 10 mi - Var 000° 0 kt METAR CYVR 061300Z 00000KT 10SM R26R/1400V1800FT/N BCFG FEW002 11/11 A3017 RMK SF1 SF TR VIS NW 3 VIS NE 4 SLP220
05:00
V
12 °C 10 mi - Var 000° 0 kt METAR CYVR 061200Z 00000KT 10SM R26R/5500VP6000FT/U MIFG FEW220 12/12 A3017 RMK CI2 VIS NE LWR SLP220
04:00
V
10 °C 10 mi - 330° 330° 2 kt METAR CYVR 061100Z 33002KT 10SM MIFG SCT220 10/10 A3018 RMK CI3 SLP222
03:00
V
12 °C 12 mi - 090° 090° 3 kt METAR CYVR 061000Z 09003KT 020V100 12SM SCT220 12/12 A3018 RMK CI3 HZ SLP223
02:00
V
13 °C 15 mi - 110° 110° 5 kt METAR CYVR 060900Z 11005KT 15SM SCT220 13/13 A3018 RMK CI4 HZ SLP222
01:00
V
13 °C 15 mi 22.000 ft 100° 100° 2 kt METAR CYVR 060800Z 10002KT 15SM R26R/2000V2200FT/N MIFG BKN220 13/13 A3018 RMK CI5 HZ SLP221
00:00
V
14 °C 15 mi 22.000 ft 070° 070° 6 kt METAR CYVR 060700Z 07006KT 15SM FEW130 BKN220 14/14 A3017 RMK AC1CI5 AC TR HZ SLP220

5. Oktober 2022

Uhrzeit Code Wetter Temp. Sichtweite Wolkendecke Wind METAR/SPECI
23:00
V
13 °C 20 mi - Var 000° 0 kt METAR CYVR 060600Z 00000KT 20SM FEW220 13/13 A3017 RMK CI2 SLP218
22:00
V
14 °C 20 mi - Var Var 2 kt METAR CYVR 060500Z VRB02KT 20SM SCT220 14/14 A3016 RMK CI4 SLP215
21:00
V
14 °C 20 mi - 340° 340° 2 kt METAR CYVR 060400Z 34002KT 20SM SCT220 14/14 A3015 RMK CI3 SLP213
20:00
V
15 °C 20 mi - 270° 270° 5 kt METAR CYVR 060300Z 27005KT 20SM FEW220 15/15 A3015 RMK CI1 SLP212
19:00
V
15 °C 20 mi - 250° 250° 3 kt METAR CYVR 060200Z 25003KT 210V270 20SM FEW220 15/15 A3015 RMK CI1 SLP211
18:00
V
16 °C 30 mi - 290° 290° 3 kt METAR CYVR 060100Z 29003KT 220V310 30SM FEW180 FEW240 16/15 A3015 RMK AC1CI2 AC TR SLP213
17:00
V
17 °C 30 mi - 270° 270° 5 kt METAR CYVR 060000Z 27005KT 30SM SCT240 17/15 A3016 RMK CI3 SLP216
16:00
V
17 °C 30 mi - 240° 240° 7 kt METAR CYVR 052300Z 24007KT 200V290 30SM FEW160 SCT240 17/14 A3017 RMK AC1CI4 AC TR SLP218
15:00
V
17 °C 30 mi 24.000 ft 260° 260° 4 kt METAR CYVR 052200Z 26004KT 230V310 30SM FEW040 BKN240 17/15 A3018 RMK CU1CI6 CU TR SLP222
14:00
V
17 °C 25 mi - 240° 240° 7 kt METAR CYVR 052100Z 24007KT 220V290 25SM FEW040 SCT240 17/14 A3019 RMK CU1CI4 CU TR HZ DIST SLP227
13:00
V
17 °C 25 mi - 240° 240° 8 kt METAR CYVR 052000Z 24008KT 25SM SCT240 17/14 A3020 RMK CI3 HZ DIST ALL QUAD SLP230
12:00
V
17 °C 20 mi 24.000 ft 250° 250° 7 kt METAR CYVR 051900Z 25007KT 220V300 20SM FEW015 FEW130 FEW180 BKN240 17/15 A3021 RMK SC2AC1AC1CI4 AC TR AC TR CU EMBEDED HZ DIST ALL QUAD SLP231
11:00
M
16 °C 20 mi 1.500 ft 190° 190° 2 kt METAR CYVR 051800Z 19002KT 20SM BKN015 16/14 A3021 RMK SC7 HZ DIST ALL QUAD SLP234
10:00
V
16 °C 20 mi - 120° 120° 5 kt METAR CYVR 051700Z 12005KT 090V150 20SM FEW025 FEW040 FEW180 SCT240 16/13 A3021 RMK CU1SC1AC1CI4 CU TR SC TR AC TR HZ DIST ALL QUAD SLP233
09:00
V
15 °C 25 mi - 100° 100° 5 kt METAR CYVR 051600Z 10005KT 25SM FEW180 SCT240 15/14 A3020 RMK AC1CI4 AC TR HZ DIST SLP229
08:00
V
13 °C 25 mi - 080° 080° 5 kt METAR CYVR 051500Z 08005KT 25SM FEW160 FEW240 13/13 A3018 RMK AC1CI1 AC TR HZ DIST SLP222
07:00
V
12 °C 15 mi - 090° 090° 6 kt METAR CYVR 051400Z 09006KT 15SM FEW160 FEW240 12/12 A3017 RMK AC1CI1 AC TR HZ DIST SLP218
06:00
V
12 °C 15 mi - 100° 100° 6 kt METAR CYVR 051300Z 10006KT 15SM FEW100 FEW220 12/12 A3016 RMK AC1CI1 SLP214
05:00
V
13 °C 15 mi - 100° 100° 11 kt METAR CYVR 051200Z 10011KT 15SM FEW100 FEW220 13/13 A3014 RMK AC1CI1 SLP210
04:00
V
13 °C 15 mi - 100° 100° 10 kt METAR CYVR 051100Z 10010KT 15SM FEW066 SCT120 SCT220 13/13 A3014 RMK AC1AC2CI1 SLP209
03:00
V
14 °C 15 mi - 080° 080° 9 kt METAR CYVR 051000Z 08009KT 15SM FEW220 14/13 A3013 RMK CI2 SLP204
02:00
V
13 °C 15 mi - 100° 100° 11 kt METAR CYVR 050900Z 10011KT 15SM FEW220 13/13 A3011 RMK CI2 SLP200
01:00
V
13 °C 15 mi - 110° 110° 10 kt METAR CYVR 050800Z 11010KT 15SM FEW110 FEW220 13/13 A3010 RMK AC1CI1 SLP196
00:00
V
14 °C 15 mi - 090° 090° 10 kt METAR CYVR 050700Z 09010KT 15SM SCT100 14/13 A3008 RMK AC3 SLP189

4. Oktober 2022

Uhrzeit Code Wetter Temp. Sichtweite Wolkendecke Wind METAR/SPECI
23:00
V
14 °C 15 mi - 090° 090° 9 kt METAR CYVR 050600Z 09009KT 15SM FEW150 FEW220 14/13 A3007 RMK AC1CI1 AC TR SLP186
22:00
V
13 °C 15 mi - 090° 090° 8 kt METAR CYVR 050500Z 09008KT 15SM SCT220 13/13 A3006 RMK CI3 SLP183
21:00
V
13 °C 15 mi - 100° 100° 7 kt METAR CYVR 050400Z 10007KT 15SM SCT220 13/13 A3005 RMK CI4 SLP177
20:00
V
14 °C 15 mi - 100° 100° 10 kt METAR CYVR 050300Z 10010KT 15SM FEW150 FEW220 14/13 A3004 RMK AC1CI2 AC TR SLP175
19:00
V
15 °C 15 mi - 110° 110° 6 kt METAR CYVR 050200Z 11006KT 15SM FEW180 SCT240 15/13 A3003 RMK AC1CI2 HZ SLP171
18:00
V
17 °C 25 mi - 130° 130° 8 kt METAR CYVR 050100Z 13008KT 25SM FEW180 SCT240 17/14 A3000 RMK AC1CI3 AC TR HZ DIST ALL QUAD SLP163 DENSITY ALT 200FT
17:00
V
17 °C 20 mi - 200° 200° 6 kt METAR CYVR 050000Z 20006KT 20SM SCT210 17/15 A3001 RMK CI3 HZ DIST ALL QUAD SLP165 DENSITY ALT 200FT
16:00
V
18 °C 15 mi - 200° 200° 8 kt METAR CYVR 042300Z 20008KT 15SM SCT210 18/15 A3002 RMK CI4 HZ DIST ALL QUAD SLP167 DENSITY ALT 300FT
15:00
V
19 °C 15 mi 21.000 ft 100° 100° 5 kt METAR CYVR 042200Z 10005KT 080V160 15SM BKN210 19/13 A3002 RMK CI7 HZ DIST ALL QUAD SLP169 DENSITY ALT 400FT
14:00
V
18 °C 15 mi 21.000 ft 140° 140° 7 kt METAR CYVR 042100Z CCA 14007KT 15SM FEW190 BKN210 18/13 A3003 RMK AC1CI7 AC TR HA DIST ALL QUAD SLP172 DENSITY ALT 300FT
13:00
V
16 °C 15 mi 21.000 ft 100° 100° 10 kt METAR CYVR 042000Z 10010KT 15SM FEW180 BKN210 BKN240 16/14 A3004 RMK AC1CI5CS2 AC TR HZ DIST ALL QUAD SLP175 DENSITY ALT 100FT
12:00
V
16 °C 10 mi 24.000 ft 100° 100° 10 kt METAR CYVR 041900Z 10010KT 10SM FEW008 BKN240 16/14 A3005 RMK SF2CI5 HZ DIST ALL QUAD SLP179
11:00
V
15 °C 8 mi - 120° 120° 9 kt METAR CYVR 041800Z 12009KT 8SM FEW008 SCT240 15/14 A3006 RMK SF2CI3 HZ DIST ALL QUAD SLP182
10:00
V
14 °C 15 mi - 130° 130° 9 kt METAR CYVR 041700Z 13009KT 15SM FEW008 SCT240 14/14 A3005 RMK SF1CI3 SF TR HZ DIST ALL QUAD SLP179
09:00
V
13 °C 6 mi - 120° 120° 7 kt METAR CYVR 041600Z 12007KT 6SM BR HZ SCT240 13/13 A3005 RMK CI4 HZ ALL QUADS SLP177
08:00
V
12 °C 6 mi - 130° 130° 5 kt METAR CYVR 041500Z 13005KT 6SM BR HZ SCT240 12/12 A3005 RMK CI4 HZ ALL QUAD SLP177
Ältere Daten

Wir und Dritte verfolgen dein Internetverhalten auf unserer Website mit Cookies. Wenn du fortfährst, gehen wir davon aus, dass du mit unserer Cookie-Richtlinie einverstanden bist. Mehr erfahren